sensor_id;sensor_type;location;lat;lon;timestamp;temperature;humidity
6206;DHT22;3136;48.788;9.772;2023-08-20T00:02:23;19.60;1.00
6206;DHT22;3136;48.788;9.772;2023-08-20T00:04:49;19.60;1.00
6206;DHT22;3136;48.788;9.772;2023-08-20T00:07:16;19.80;1.00
6206;DHT22;3136;48.788;9.772;2023-08-20T00:09:44;19.60;1.00
6206;DHT22;3136;48.788;9.772;2023-08-20T00:12:09;19.80;1.00
6206;DHT22;3136;48.788;9.772;2023-08-20T00:14:56;19.60;1.00
6206;DHT22;3136;48.788;9.772;2023-08-20T00:17:24;19.60;1.00
6206;DHT22;3136;48.788;9.772;2023-08-20T00:19:55;19.60;1.00
6206;DHT22;3136;48.788;9.772;2023-08-20T00:22:25;19.50;1.00
6206;DHT22;3136;48.788;9.772;2023-08-20T00:24:54;19.50;1.00
6206;DHT22;3136;48.788;9.772;2023-08-20T00:27:20;19.50;1.00
6206;DHT22;3136;48.788;9.772;2023-08-20T00:29:46;19.80;1.00
6206;DHT22;3136;48.788;9.772;2023-08-20T00:32:12;19.50;1.00
6206;DHT22;3136;48.788;9.772;2023-08-20T00:34:37;19.50;1.00
6206;DHT22;3136;48.788;9.772;2023-08-20T00:37:03;19.40;1.00
6206;DHT22;3136;48.788;9.772;2023-08-20T00:39:32;19.40;1.00
6206;DHT22;3136;48.788;9.772;2023-08-20T00:41:58;19.40;1.00
6206;DHT22;3136;48.788;9.772;2023-08-20T00:44:24;19.40;1.00
6206;DHT22;3136;48.788;9.772;2023-08-20T00:46:50;19.40;1.00
6206;DHT22;3136;48.788;9.772;2023-08-20T00:49:16;19.40;1.00
6206;DHT22;3136;48.788;9.772;2023-08-20T00:51:42;19.40;1.00
6206;DHT22;3136;48.788;9.772;2023-08-20T00:54:08;19.30;1.00
6206;DHT22;3136;48.788;9.772;2023-08-20T00:56:35;19.30;1.00
6206;DHT22;3136;48.788;9.772;2023-08-20T00:59:01;19.20;1.00
6206;DHT22;3136;48.788;9.772;2023-08-20T01:01:26;19.20;1.00
6206;DHT22;3136;48.788;9.772;2023-08-20T01:03:52;19.20;1.00
6206;DHT22;3136;48.788;9.772;2023-08-20T01:06:46;19.10;1.00
6206;DHT22;3136;48.788;9.772;2023-08-20T01:12:00;19.10;1.00
6206;DHT22;3136;48.788;9.772;2023-08-20T01:14:27;19.10;1.00
6206;DHT22;3136;48.788;9.772;2023-08-20T01:16:53;19.20;1.00
6206;DHT22;3136;48.788;9.772;2023-08-20T01:19:20;19.20;1.00
6206;DHT22;3136;48.788;9.772;2023-08-20T01:27:12;19.10;1.00
6206;DHT22;3136;48.788;9.772;2023-08-20T01:29:44;19.10;1.00
6206;DHT22;3136;48.788;9.772;2023-08-20T01:32:11;19.00;1.00
6206;DHT22;3136;48.788;9.772;2023-08-20T01:34:37;19.00;1.00
6206;DHT22;3136;48.788;9.772;2023-08-20T01:37:03;18.90;1.00
6206;DHT22;3136;48.788;9.772;2023-08-20T01:39:29;19.00;1.00
6206;DHT22;3136;48.788;9.772;2023-08-20T01:41:54;18.90;1.00
6206;DHT22;3136;48.788;9.772;2023-08-20T01:44:20;18.90;1.00
6206;DHT22;3136;48.788;9.772;2023-08-20T01:46:45;18.90;1.00
6206;DHT22;3136;48.788;9.772;2023-08-20T01:49:11;18.90;1.00
6206;DHT22;3136;48.788;9.772;2023-08-20T01:51:37;18.90;1.00
6206;DHT22;3136;48.788;9.772;2023-08-20T01:54:02;18.80;1.00
6206;DHT22;3136;48.788;9.772;2023-08-20T01:56:28;18.80;1.00
6206;DHT22;3136;48.788;9.772;2023-08-20T01:58:53;18.80;1.00
6206;DHT22;3136;48.788;9.772;2023-08-20T02:01:19;18.80;1.00
6206;DHT22;3136;48.788;9.772;2023-08-20T02:03:44;18.80;1.00
6206;DHT22;3136;48.788;9.772;2023-08-20T02:06:10;18.80;1.00
6206;DHT22;3136;48.788;9.772;2023-08-20T02:08:36;18.90;1.00
6206;DHT22;3136;48.788;9.772;2023-08-20T02:11:02;18.80;1.00
6206;DHT22;3136;48.788;9.772;2023-08-20T02:13:29;18.70;1.00
6206;DHT22;3136;48.788;9.772;2023-08-20T02:16:02;18.90;1.00
6206;DHT22;3136;48.788;9.772;2023-08-20T02:18:28;18.80;1.00
6206;DHT22;3136;48.788;9.772;2023-08-20T02:20:54;18.80;1.00
6206;DHT22;3136;48.788;9.772;2023-08-20T02:23:20;18.80;1.00
6206;DHT22;3136;48.788;9.772;2023-08-20T02:25:46;18.80;1.00
6206;DHT22;3136;48.788;9.772;2023-08-20T02:28:12;18.80;1.00
6206;DHT22;3136;48.788;9.772;2023-08-20T02:30:42;19.00;1.00
6206;DHT22;3136;48.788;9.772;2023-08-20T02:33:08;18.90;1.00
6206;DHT22;3136;48.788;9.772;2023-08-20T02:35:33;18.80;1.00
6206;DHT22;3136;48.788;9.772;2023-08-20T02:37:59;18.80;1.00
6206;DHT22;3136;48.788;9.772;2023-08-20T02:40:24;19.00;1.00
6206;DHT22;3136;48.788;9.772;2023-08-20T02:42:50;18.80;1.00
6206;DHT22;3136;48.788;9.772;2023-08-20T02:45:15;18.80;1.00
6206;DHT22;3136;48.788;9.772;2023-08-20T02:47:41;18.80;1.00
6206;DHT22;3136;48.788;9.772;2023-08-20T02:50:07;18.80;1.00
6206;DHT22;3136;48.788;9.772;2023-08-20T02:52:32;18.80;1.00
6206;DHT22;3136;48.788;9.772;2023-08-20T02:54:58;18.80;1.00
6206;DHT22;3136;48.788;9.772;2023-08-20T02:57:23;18.80;1.00
6206;DHT22;3136;48.788;9.772;2023-08-20T02:59:49;18.80;1.00
6206;DHT22;3136;48.788;9.772;2023-08-20T03:02:15;18.80;1.00
6206;DHT22;3136;48.788;9.772;2023-08-20T03:04:41;18.70;1.00
6206;DHT22;3136;48.788;9.772;2023-08-20T03:07:06;18.70;1.00
6206;DHT22;3136;48.788;9.772;2023-08-20T03:09:32;18.70;1.00
6206;DHT22;3136;48.788;9.772;2023-08-20T03:11:58;18.70;1.00
6206;DHT22;3136;48.788;9.772;2023-08-20T03:14:23;18.80;1.00
6206;DHT22;3136;48.788;9.772;2023-08-20T03:16:49;18.70;1.00
6206;DHT22;3136;48.788;9.772;2023-08-20T03:19:15;18.70;1.00
6206;DHT22;3136;48.788;9.772;2023-08-20T03:21:41;18.60;1.00
6206;DHT22;3136;48.788;9.772;2023-08-20T03:24:07;18.70;1.00
6206;DHT22;3136;48.788;9.772;2023-08-20T03:26:33;18.60;1.00
6206;DHT22;3136;48.788;9.772;2023-08-20T03:28:59;18.60;1.00
6206;DHT22;3136;48.788;9.772;2023-08-20T03:31:25;18.60;1.00
6206;DHT22;3136;48.788;9.772;2023-08-20T03:33:50;18.60;1.00
6206;DHT22;3136;48.788;9.772;2023-08-20T03:36:16;18.60;1.00
6206;DHT22;3136;48.788;9.772;2023-08-20T03:38:42;18.60;1.00
6206;DHT22;3136;48.788;9.772;2023-08-20T03:41:07;18.50;1.00
6206;DHT22;3136;48.788;9.772;2023-08-20T03:43:33;18.50;1.00
6206;DHT22;3136;48.788;9.772;2023-08-20T03:45:59;18.40;1.00
6206;DHT22;3136;48.788;9.772;2023-08-20T03:48:24;18.40;1.00
6206;DHT22;3136;48.788;9.772;2023-08-20T03:50:50;18.30;1.00
6206;DHT22;3136;48.788;9.772;2023-08-20T03:53:15;18.40;1.00
6206;DHT22;3136;48.788;9.772;2023-08-20T03:55:47;18.40;1.00
6206;DHT22;3136;48.788;9.772;2023-08-20T03:58:13;18.40;1.00
6206;DHT22;3136;48.788;9.772;2023-08-20T04:00:38;18.40;1.00
6206;DHT22;3136;48.788;9.772;2023-08-20T04:03:04;18.30;1.00
6206;DHT22;3136;48.788;9.772;2023-08-20T04:05:36;18.30;1.00
6206;DHT22;3136;48.788;9.772;2023-08-20T04:08:02;18.40;1.00
6206;DHT22;3136;48.788;9.772;2023-08-20T04:10:27;18.30;1.00
6206;DHT22;3136;48.788;9.772;2023-08-20T04:12:53;18.30;1.00
6206;DHT22;3136;48.788;9.772;2023-08-20T04:15:19;18.20;1.00
6206;DHT22;3136;48.788;9.772;2023-08-20T04:17:44;18.30;1.00
6206;DHT22;3136;48.788;9.772;2023-08-20T04:20:10;18.20;1.00
6206;DHT22;3136;48.788;9.772;2023-08-20T04:22:37;18.30;1.00
6206;DHT22;3136;48.788;9.772;2023-08-20T04:25:03;18.20;1.00
6206;DHT22;3136;48.788;9.772;2023-08-20T04:27:28;18.20;1.00
6206;DHT22;3136;48.788;9.772;2023-08-20T04:29:54;18.20;1.00
6206;DHT22;3136;48.788;9.772;2023-08-20T04:32:20;18.10;1.00
6206;DHT22;3136;48.788;9.772;2023-08-20T04:34:45;18.10;1.00
6206;DHT22;3136;48.788;9.772;2023-08-20T04:37:13;18.10;1.00
6206;DHT22;3136;48.788;9.772;2023-08-20T04:39:39;18.10;1.00
6206;DHT22;3136;48.788;9.772;2023-08-20T04:42:04;18.10;1.00
6206;DHT22;3136;48.788;9.772;2023-08-20T04:44:30;18.10;1.00
6206;DHT22;3136;48.788;9.772;2023-08-20T04:46:56;18.10;1.00
6206;DHT22;3136;48.788;9.772;2023-08-20T04:49:21;18.10;1.00
6206;DHT22;3136;48.788;9.772;2023-08-20T04:51:47;18.10;1.00
6206;DHT22;3136;48.788;9.772;2023-08-20T04:54:12;18.10;1.00
6206;DHT22;3136;48.788;9.772;2023-08-20T04:56:38;18.10;1.00
6206;DHT22;3136;48.788;9.772;2023-08-20T04:59:03;18.10;1.00
6206;DHT22;3136;48.788;9.772;2023-08-20T05:01:29;18.10;1.00
6206;DHT22;3136;48.788;9.772;2023-08-20T05:03:54;18.10;1.00
6206;DHT22;3136;48.788;9.772;2023-08-20T05:06:20;18.20;1.00
6206;DHT22;3136;48.788;9.772;2023-08-20T05:08:45;18.20;1.00
6206;DHT22;3136;48.788;9.772;2023-08-20T05:11:11;18.20;1.00
6206;DHT22;3136;48.788;9.772;2023-08-20T05:13:37;18.10;1.00
6206;DHT22;3136;48.788;9.772;2023-08-20T05:16:02;18.30;1.00
6206;DHT22;3136;48.788;9.772;2023-08-20T05:18:28;18.30;1.00
6206;DHT22;3136;48.788;9.772;2023-08-20T05:20:53;18.30;1.00
6206;DHT22;3136;48.788;9.772;2023-08-20T05:23:19;18.30;1.00
6206;DHT22;3136;48.788;9.772;2023-08-20T05:25:44;18.50;1.00
6206;DHT22;3136;48.788;9.772;2023-08-20T05:28:10;18.50;1.00
6206;DHT22;3136;48.788;9.772;2023-08-20T05:30:36;18.70;1.00
6206;DHT22;3136;48.788;9.772;2023-08-20T05:33:01;18.60;1.00
6206;DHT22;3136;48.788;9.772;2023-08-20T05:35:27;18.70;1.00
6206;DHT22;3136;48.788;9.772;2023-08-20T05:37:53;18.70;1.00
6206;DHT22;3136;48.788;9.772;2023-08-20T05:40:19;18.70;1.00
6206;DHT22;3136;48.788;9.772;2023-08-20T05:42:46;18.70;1.00
6206;DHT22;3136;48.788;9.772;2023-08-20T05:45:11;18.90;1.00
6206;DHT22;3136;48.788;9.772;2023-08-20T05:47:37;19.00;1.00
6206;DHT22;3136;48.788;9.772;2023-08-20T05:50:03;19.00;1.00
6206;DHT22;3136;48.788;9.772;2023-08-20T05:52:28;19.10;1.00
6206;DHT22;3136;48.788;9.772;2023-08-20T05:54:54;19.10;1.00
6206;DHT22;3136;48.788;9.772;2023-08-20T05:57:19;19.30;1.00
6206;DHT22;3136;48.788;9.772;2023-08-20T05:59:45;19.30;1.00
6206;DHT22;3136;48.788;9.772;2023-08-20T06:02:14;19.30;1.00
6206;DHT22;3136;48.788;9.772;2023-08-20T06:04:40;19.40;1.00
6206;DHT22;3136;48.788;9.772;2023-08-20T06:07:06;19.60;1.00
6206;DHT22;3136;48.788;9.772;2023-08-20T06:09:31;19.50;1.00
6206;DHT22;3136;48.788;9.772;2023-08-20T06:11:57;19.60;1.00
6206;DHT22;3136;48.788;9.772;2023-08-20T06:14:23;19.70;1.00
6206;DHT22;3136;48.788;9.772;2023-08-20T06:16:48;19.80;1.00
6206;DHT22;3136;48.788;9.772;2023-08-20T06:19:14;19.90;1.00
6206;DHT22;3136;48.788;9.772;2023-08-20T06:21:39;20.00;1.00
6206;DHT22;3136;48.788;9.772;2023-08-20T06:24:05;20.10;1.00
6206;DHT22;3136;48.788;9.772;2023-08-20T06:26:31;20.20;1.00
6206;DHT22;3136;48.788;9.772;2023-08-20T06:28:56;20.30;1.00
6206;DHT22;3136;48.788;9.772;2023-08-20T06:31:22;20.50;1.00
6206;DHT22;3136;48.788;9.772;2023-08-20T06:33:47;20.50;1.00
6206;DHT22;3136;48.788;9.772;2023-08-20T06:36:13;20.60;1.00
6206;DHT22;3136;48.788;9.772;2023-08-20T06:38:39;20.80;1.00
6206;DHT22;3136;48.788;9.772;2023-08-20T06:41:04;20.80;1.00
6206;DHT22;3136;48.788;9.772;2023-08-20T06:43:30;20.90;1.00
6206;DHT22;3136;48.788;9.772;2023-08-20T06:45:55;20.90;99.90
6206;DHT22;3136;48.788;9.772;2023-08-20T06:48:21;21.20;99.90
6206;DHT22;3136;48.788;9.772;2023-08-20T06:50:48;21.20;99.90
6206;DHT22;3136;48.788;9.772;2023-08-20T06:53:14;21.30;99.90
6206;DHT22;3136;48.788;9.772;2023-08-20T06:55:39;21.50;1.00
6206;DHT22;3136;48.788;9.772;2023-08-20T06:58:05;21.50;1.00
6206;DHT22;3136;48.788;9.772;2023-08-20T07:00:30;21.60;37.80
6206;DHT22;3136;48.788;9.772;2023-08-20T07:02:56;21.60;1.00
6206;DHT22;3136;48.788;9.772;2023-08-20T07:05:22;21.90;1.00
6206;DHT22;3136;48.788;9.772;2023-08-20T07:07:47;21.90;99.90
6206;DHT22;3136;48.788;9.772;2023-08-20T07:10:13;22.10;79.20
6206;DHT22;3136;48.788;9.772;2023-08-20T07:12:38;22.20;1.00
6206;DHT22;3136;48.788;9.772;2023-08-20T07:15:05;22.30;99.90
6206;DHT22;3136;48.788;9.772;2023-08-20T07:17:31;22.40;99.90
6206;DHT22;3136;48.788;9.772;2023-08-20T07:19:56;22.50;1.00
6206;DHT22;3136;48.788;9.772;2023-08-20T07:22:22;22.60;1.00
6206;DHT22;3136;48.788;9.772;2023-08-20T07:24:47;22.70;26.60
6206;DHT22;3136;48.788;9.772;2023-08-20T07:27:13;22.80;99.90
6206;DHT22;3136;48.788;9.772;2023-08-20T07:29:39;23.00;99.90
6206;DHT22;3136;48.788;9.772;2023-08-20T07:32:04;23.20;99.90
6206;DHT22;3136;48.788;9.772;2023-08-20T07:34:30;23.20;1.00
6206;DHT22;3136;48.788;9.772;2023-08-20T07:36:56;23.30;99.90
6206;DHT22;3136;48.788;9.772;2023-08-20T07:39:22;23.40;99.90
6206;DHT22;3136;48.788;9.772;2023-08-20T07:41:47;23.40;1.00
6206;DHT22;3136;48.788;9.772;2023-08-20T07:44:13;23.60;1.00
6206;DHT22;3136;48.788;9.772;2023-08-20T07:46:39;23.70;1.00
6206;DHT22;3136;48.788;9.772;2023-08-20T07:49:04;23.80;80.80
6206;DHT22;3136;48.788;9.772;2023-08-20T07:51:38;23.90;99.90
6206;DHT22;3136;48.788;9.772;2023-08-20T07:54:03;24.00;1.00
6206;DHT22;3136;48.788;9.772;2023-08-20T07:56:29;24.10;99.90
6206;DHT22;3136;48.788;9.772;2023-08-20T07:58:55;24.20;1.00
6206;DHT22;3136;48.788;9.772;2023-08-20T08:01:20;24.30;99.90
6206;DHT22;3136;48.788;9.772;2023-08-20T08:03:46;24.40;1.00
6206;DHT22;3136;48.788;9.772;2023-08-20T08:06:12;25.50;99.90
6206;DHT22;3136;48.788;9.772;2023-08-20T08:08:43;24.60;1.00
6206;DHT22;3136;48.788;9.772;2023-08-20T08:11:11;24.60;1.00
6206;DHT22;3136;48.788;9.772;2023-08-20T08:13:37;24.80;1.00
6206;DHT22;3136;48.788;9.772;2023-08-20T08:16:02;24.90;1.00
6206;DHT22;3136;48.788;9.772;2023-08-20T08:18:28;25.10;1.00
6206;DHT22;3136;48.788;9.772;2023-08-20T08:20:53;25.20;1.00
6206;DHT22;3136;48.788;9.772;2023-08-20T08:23:19;25.30;1.00
6206;DHT22;3136;48.788;9.772;2023-08-20T08:25:44;25.40;1.00
6206;DHT22;3136;48.788;9.772;2023-08-20T08:28:10;25.40;1.00
6206;DHT22;3136;48.788;9.772;2023-08-20T08:30:37;25.50;1.00
6206;DHT22;3136;48.788;9.772;2023-08-20T08:33:03;25.60;99.90
6206;DHT22;3136;48.788;9.772;2023-08-20T08:35:29;25.70;1.00
6206;DHT22;3136;48.788;9.772;2023-08-20T08:37:55;25.80;1.00
6206;DHT22;3136;48.788;9.772;2023-08-20T08:40:21;25.90;99.90
6206;DHT22;3136;48.788;9.772;2023-08-20T08:42:48;26.00;1.00
6206;DHT22;3136;48.788;9.772;2023-08-20T08:45:18;27.40;1.00
6206;DHT22;3136;48.788;9.772;2023-08-20T08:47:45;26.10;1.00
6206;DHT22;3136;48.788;9.772;2023-08-20T08:50:11;26.30;1.00
6206;DHT22;3136;48.788;9.772;2023-08-20T08:52:37;26.30;1.00
6206;DHT22;3136;48.788;9.772;2023-08-20T08:55:05;26.40;1.00
6206;DHT22;3136;48.788;9.772;2023-08-20T08:57:33;26.60;1.00
6206;DHT22;3136;48.788;9.772;2023-08-20T08:59:59;26.70;99.90
6206;DHT22;3136;48.788;9.772;2023-08-20T09:02:24;26.80;1.00
6206;DHT22;3136;48.788;9.772;2023-08-20T09:04:50;26.80;41.40
6206;DHT22;3136;48.788;9.772;2023-08-20T09:07:16;26.90;24.10
6206;DHT22;3136;48.788;9.772;2023-08-20T09:09:43;27.00;99.90
6206;DHT22;3136;48.788;9.772;2023-08-20T09:12:16;27.10;99.90
6206;DHT22;3136;48.788;9.772;2023-08-20T09:14:49;27.10;31.50
6206;DHT22;3136;48.788;9.772;2023-08-20T09:17:15;27.10;1.00
6206;DHT22;3136;48.788;9.772;2023-08-20T09:19:44;27.20;1.00
6206;DHT22;3136;48.788;9.772;2023-08-20T09:22:12;27.30;1.00
6206;DHT22;3136;48.788;9.772;2023-08-20T09:24:44;27.60;1.00
6206;DHT22;3136;48.788;9.772;2023-08-20T09:27:11;27.60;1.00
6206;DHT22;3136;48.788;9.772;2023-08-20T09:32:14;27.90;99.90
6206;DHT22;3136;48.788;9.772;2023-08-20T09:34:40;28.00;1.00
6206;DHT22;3136;48.788;9.772;2023-08-20T09:37:10;28.10;99.90
6206;DHT22;3136;48.788;9.772;2023-08-20T09:39:37;28.20;99.90
6206;DHT22;3136;48.788;9.772;2023-08-20T09:42:05;28.40;99.90
6206;DHT22;3136;48.788;9.772;2023-08-20T09:44:36;28.40;99.90
6206;DHT22;3136;48.788;9.772;2023-08-20T09:47:05;28.50;99.90
6206;DHT22;3136;48.788;9.772;2023-08-20T09:49:35;28.50;99.90
6206;DHT22;3136;48.788;9.772;2023-08-20T09:52:04;28.60;99.90
6206;DHT22;3136;48.788;9.772;2023-08-20T09:54:40;28.60;99.90
6206;DHT22;3136;48.788;9.772;2023-08-20T09:57:12;28.70;99.90
6206;DHT22;3136;48.788;9.772;2023-08-20T09:59:41;28.80;99.90
6206;DHT22;3136;48.788;9.772;2023-08-20T10:02:10;28.90;99.90
6206;DHT22;3136;48.788;9.772;2023-08-20T10:04:37;29.00;99.90
6206;DHT22;3136;48.788;9.772;2023-08-20T10:07:03;29.10;99.90
6206;DHT22;3136;48.788;9.772;2023-08-20T10:09:29;29.20;99.90
6206;DHT22;3136;48.788;9.772;2023-08-20T10:11:55;29.30;99.90
6206;DHT22;3136;48.788;9.772;2023-08-20T10:14:20;29.40;99.90
6206;DHT22;3136;48.788;9.772;2023-08-20T10:16:46;29.60;99.30
6206;DHT22;3136;48.788;9.772;2023-08-20T10:19:11;29.70;94.10
6206;DHT22;3136;48.788;9.772;2023-08-20T10:21:44;29.80;91.50
6206;DHT22;3136;48.788;9.772;2023-08-20T10:24:16;30.00;92.80
6206;DHT22;3136;48.788;9.772;2023-08-20T10:26:45;30.10;93.70
6206;DHT22;3136;48.788;9.772;2023-08-20T10:29:38;30.20;92.10
6206;DHT22;3136;48.788;9.772;2023-08-20T10:32:13;30.20;90.50
6206;DHT22;3136;48.788;9.772;2023-08-20T10:34:42;30.50;93.30
6206;DHT22;3136;48.788;9.772;2023-08-20T10:37:14;30.70;88.20
6206;DHT22;3136;48.788;9.772;2023-08-20T10:39:40;31.30;85.50
6206;DHT22;3136;48.788;9.772;2023-08-20T10:42:09;32.00;80.10
6206;DHT22;3136;48.788;9.772;2023-08-20T10:45:11;32.60;80.80
6206;DHT22;3136;48.788;9.772;2023-08-20T10:47:42;32.90;77.30
6206;DHT22;3136;48.788;9.772;2023-08-20T10:50:09;33.20;73.00
6206;DHT22;3136;48.788;9.772;2023-08-20T10:52:39;33.70;71.20
6206;DHT22;3136;48.788;9.772;2023-08-20T10:55:07;33.30;66.60
6206;DHT22;3136;48.788;9.772;2023-08-20T10:57:34;34.40;67.70
6206;DHT22;3136;48.788;9.772;2023-08-20T11:00:03;34.40;65.90
6206;DHT22;3136;48.788;9.772;2023-08-20T11:02:34;34.60;64.90
6206;DHT22;3136;48.788;9.772;2023-08-20T11:05:02;34.60;62.40
6206;DHT22;3136;48.788;9.772;2023-08-20T11:07:28;34.70;63.10
6206;DHT22;3136;48.788;9.772;2023-08-20T11:09:57;35.00;59.10
6206;DHT22;3136;48.788;9.772;2023-08-20T11:12:28;35.50;58.50
6206;DHT22;3136;48.788;9.772;2023-08-20T11:15:00;36.20;56.70
6206;DHT22;3136;48.788;9.772;2023-08-20T11:17:25;36.40;57.00
6206;DHT22;3136;48.788;9.772;2023-08-20T11:19:51;36.70;54.20
6206;DHT22;3136;48.788;9.772;2023-08-20T11:22:16;37.10;53.30
6206;DHT22;3136;48.788;9.772;2023-08-20T11:24:44;37.60;51.80
6206;DHT22;3136;48.788;9.772;2023-08-20T11:27:09;37.80;50.40
6206;DHT22;3136;48.788;9.772;2023-08-20T11:29:35;38.30;50.40
6206;DHT22;3136;48.788;9.772;2023-08-20T11:32:01;38.60;47.90
6206;DHT22;3136;48.788;9.772;2023-08-20T11:34:28;38.70;46.80
6206;DHT22;3136;48.788;9.772;2023-08-20T11:36:54;38.80;46.40
6206;DHT22;3136;48.788;9.772;2023-08-20T11:39:22;38.90;45.40
6206;DHT22;3136;48.788;9.772;2023-08-20T11:41:48;39.00;42.80
6206;DHT22;3136;48.788;9.772;2023-08-20T11:44:20;38.70;40.80
6206;DHT22;3136;48.788;9.772;2023-08-20T11:46:51;38.60;38.40
6206;DHT22;3136;48.788;9.772;2023-08-20T11:49:17;38.90;39.60
6206;DHT22;3136;48.788;9.772;2023-08-20T11:51:46;38.80;38.70
6206;DHT22;3136;48.788;9.772;2023-08-20T11:54:14;38.60;37.60
6206;DHT22;3136;48.788;9.772;2023-08-20T11:56:50;38.20;36.90
6206;DHT22;3136;48.788;9.772;2023-08-20T11:59:20;37.60;36.40
6206;DHT22;3136;48.788;9.772;2023-08-20T12:01:56;38.00;37.00
6206;DHT22;3136;48.788;9.772;2023-08-20T12:04:25;38.20;35.10
6206;DHT22;3136;48.788;9.772;2023-08-20T12:07:05;38.60;34.20
6206;DHT22;3136;48.788;9.772;2023-08-20T12:09:32;38.60;32.80
6206;DHT22;3136;48.788;9.772;2023-08-20T12:11:58;38.90;33.60
6206;DHT22;3136;48.788;9.772;2023-08-20T12:14:24;39.30;32.90
6206;DHT22;3136;48.788;9.772;2023-08-20T12:16:50;39.00;32.90
6206;DHT22;3136;48.788;9.772;2023-08-20T12:19:19;38.90;32.30
6206;DHT22;3136;48.788;9.772;2023-08-20T12:21:45;39.10;30.80
6206;DHT22;3136;48.788;9.772;2023-08-20T12:24:11;39.40;29.70
6206;DHT22;3136;48.788;9.772;2023-08-20T12:26:37;39.70;29.40
6206;DHT22;3136;48.788;9.772;2023-08-20T12:29:03;39.40;29.50
6206;DHT22;3136;48.788;9.772;2023-08-20T12:31:28;39.50;29.00
6206;DHT22;3136;48.788;9.772;2023-08-20T12:33:54;39.70;28.40
6206;DHT22;3136;48.788;9.772;2023-08-20T12:36:19;39.30;28.30
6206;DHT22;3136;48.788;9.772;2023-08-20T12:38:45;39.10;26.70
6206;DHT22;3136;48.788;9.772;2023-08-20T12:41:10;38.80;25.80
6206;DHT22;3136;48.788;9.772;2023-08-20T12:43:36;38.20;27.00
6206;DHT22;3136;48.788;9.772;2023-08-20T12:46:02;37.80;25.60
6206;DHT22;3136;48.788;9.772;2023-08-20T12:48:28;37.60;25.40
6206;DHT22;3136;48.788;9.772;2023-08-20T12:50:54;37.50;24.50
6206;DHT22;3136;48.788;9.772;2023-08-20T12:53:20;37.50;25.60
6206;DHT22;3136;48.788;9.772;2023-08-20T12:55:47;37.70;25.70
6206;DHT22;3136;48.788;9.772;2023-08-20T12:58:13;38.20;25.50
6206;DHT22;3136;48.788;9.772;2023-08-20T13:00:38;38.50;24.60
6206;DHT22;3136;48.788;9.772;2023-08-20T13:03:04;39.00;25.20
6206;DHT22;3136;48.788;9.772;2023-08-20T13:05:30;38.80;24.00
6206;DHT22;3136;48.788;9.772;2023-08-20T13:07:56;38.40;24.80
6206;DHT22;3136;48.788;9.772;2023-08-20T13:10:22;38.30;25.30
6206;DHT22;3136;48.788;9.772;2023-08-20T13:12:52;38.60;25.20
6206;DHT22;3136;48.788;9.772;2023-08-20T13:15:22;38.80;24.50
6206;DHT22;3136;48.788;9.772;2023-08-20T13:17:49;38.80;24.00
6206;DHT22;3136;48.788;9.772;2023-08-20T13:20:15;38.80;23.10
6206;DHT22;3136;48.788;9.772;2023-08-20T13:22:46;38.80;23.90
6206;DHT22;3136;48.788;9.772;2023-08-20T13:25:12;38.80;25.20
6206;DHT22;3136;48.788;9.772;2023-08-20T13:27:37;39.20;23.80
6206;DHT22;3136;48.788;9.772;2023-08-20T13:30:03;39.10;23.40
6206;DHT22;3136;48.788;9.772;2023-08-20T13:32:29;39.30;23.50
6206;DHT22;3136;48.788;9.772;2023-08-20T13:34:54;39.40;22.90
6206;DHT22;3136;48.788;9.772;2023-08-20T13:37:20;39.20;24.20
6206;DHT22;3136;48.788;9.772;2023-08-20T13:39:45;39.30;22.60
6206;DHT22;3136;48.788;9.772;2023-08-20T13:42:11;39.20;21.70
6206;DHT22;3136;48.788;9.772;2023-08-20T13:44:36;39.20;22.70
6206;DHT22;3136;48.788;9.772;2023-08-20T13:47:02;39.00;22.20
6206;DHT22;3136;48.788;9.772;2023-08-20T13:49:27;38.80;21.60
6206;DHT22;3136;48.788;9.772;2023-08-20T13:51:53;38.50;22.00
6206;DHT22;3136;48.788;9.772;2023-08-20T13:54:19;38.10;20.30
6206;DHT22;3136;48.788;9.772;2023-08-20T13:56:44;37.80;19.60
6206;DHT22;3136;48.788;9.772;2023-08-20T13:59:10;37.80;20.20
6206;DHT22;3136;48.788;9.772;2023-08-20T14:01:35;37.80;20.60
6206;DHT22;3136;48.788;9.772;2023-08-20T14:04:01;37.70;19.60
6206;DHT22;3136;48.788;9.772;2023-08-20T14:06:27;37.70;20.50
6206;DHT22;3136;48.788;9.772;2023-08-20T14:08:53;37.80;20.50
6206;DHT22;3136;48.788;9.772;2023-08-20T14:11:19;37.80;20.70
6206;DHT22;3136;48.788;9.772;2023-08-20T14:13:44;37.70;21.20
6206;DHT22;3136;48.788;9.772;2023-08-20T14:16:10;37.30;20.10
6206;DHT22;3136;48.788;9.772;2023-08-20T14:18:36;36.80;19.90
6206;DHT22;3136;48.788;9.772;2023-08-20T14:21:01;36.30;20.20
6206;DHT22;3136;48.788;9.772;2023-08-20T14:23:27;35.70;20.20
6206;DHT22;3136;48.788;9.772;2023-08-20T14:25:55;35.10;19.60
6206;DHT22;3136;48.788;9.772;2023-08-20T14:28:21;34.60;21.70
6206;DHT22;3136;48.788;9.772;2023-08-20T14:30:46;34.20;21.10
6206;DHT22;3136;48.788;9.772;2023-08-20T14:33:12;33.90;21.30
6206;DHT22;3136;48.788;9.772;2023-08-20T14:35:37;33.80;20.00
6206;DHT22;3136;48.788;9.772;2023-08-20T14:38:03;33.80;20.50
6206;DHT22;3136;48.788;9.772;2023-08-20T14:40:30;33.70;22.30
6206;DHT22;3136;48.788;9.772;2023-08-20T14:42:56;33.70;21.20
6206;DHT22;3136;48.788;9.772;2023-08-20T14:45:21;33.60;21.60
6206;DHT22;3136;48.788;9.772;2023-08-20T14:47:47;33.40;23.60
6206;DHT22;3136;48.788;9.772;2023-08-20T14:50:12;33.30;22.30
6206;DHT22;3136;48.788;9.772;2023-08-20T14:52:38;33.20;22.50
6206;DHT22;3136;48.788;9.772;2023-08-20T14:55:04;33.20;24.20
6206;DHT22;3136;48.788;9.772;2023-08-20T14:57:33;33.10;22.70
6206;DHT22;3136;48.788;9.772;2023-08-20T14:59:59;33.00;23.60
6206;DHT22;3136;48.788;9.772;2023-08-20T15:02:24;33.00;24.40
6206;DHT22;3136;48.788;9.772;2023-08-20T15:04:50;33.00;21.80
6206;DHT22;3136;48.788;9.772;2023-08-20T15:07:15;32.90;23.30
6206;DHT22;3136;48.788;9.772;2023-08-20T15:09:41;32.90;23.60
6206;DHT22;3136;48.788;9.772;2023-08-20T15:12:06;32.90;24.60
6206;DHT22;3136;48.788;9.772;2023-08-20T15:14:32;32.90;24.30
6206;DHT22;3136;48.788;9.772;2023-08-20T15:16:58;32.80;25.20
6206;DHT22;3136;48.788;9.772;2023-08-20T15:19:23;32.80;25.30
6206;DHT22;3136;48.788;9.772;2023-08-20T15:21:49;32.70;23.80
6206;DHT22;3136;48.788;9.772;2023-08-20T15:24:14;32.70;23.30
6206;DHT22;3136;48.788;9.772;2023-08-20T15:26:40;32.60;25.30
6206;DHT22;3136;48.788;9.772;2023-08-20T15:29:06;32.60;24.50
6206;DHT22;3136;48.788;9.772;2023-08-20T15:31:32;32.50;24.80
6206;DHT22;3136;48.788;9.772;2023-08-20T15:33:58;32.50;26.50
6206;DHT22;3136;48.788;9.772;2023-08-20T15:36:23;32.50;25.90
6206;DHT22;3136;48.788;9.772;2023-08-20T15:38:49;32.60;24.50
6206;DHT22;3136;48.788;9.772;2023-08-20T15:41:14;32.80;26.50
6206;DHT22;3136;48.788;9.772;2023-08-20T15:43:41;32.90;28.30
6206;DHT22;3136;48.788;9.772;2023-08-20T15:46:07;32.80;25.90
6206;DHT22;3136;48.788;9.772;2023-08-20T15:48:32;32.70;29.00
6206;DHT22;3136;48.788;9.772;2023-08-20T15:50:58;32.60;28.40
6206;DHT22;3136;48.788;9.772;2023-08-20T15:53:24;32.50;27.60
6206;DHT22;3136;48.788;9.772;2023-08-20T15:55:50;32.40;27.00
6206;DHT22;3136;48.788;9.772;2023-08-20T15:58:15;32.40;27.80
6206;DHT22;3136;48.788;9.772;2023-08-20T16:00:41;32.30;25.80
6206;DHT22;3136;48.788;9.772;2023-08-20T16:03:06;32.20;27.60
6206;DHT22;3136;48.788;9.772;2023-08-20T16:05:34;32.10;28.70
6206;DHT22;3136;48.788;9.772;2023-08-20T16:07:59;32.00;27.80
6206;DHT22;3136;48.788;9.772;2023-08-20T16:10:25;31.90;29.20
6206;DHT22;3136;48.788;9.772;2023-08-20T16:12:51;31.70;30.50
6206;DHT22;3136;48.788;9.772;2023-08-20T16:15:17;31.60;32.80
6206;DHT22;3136;48.788;9.772;2023-08-20T16:17:42;31.50;38.80